Time;durP1;ratioP1;P1;durP2;ratioP2;P2;SDS_P1;SDS_P2;PMS_P1;PMS_P2;Temp;Humidity;BMP_temperature;BMP_pressure;BME280_temperature;BME280_humidity;BME280_pressure;Samples;Min_cycle;Max_cycle;Signal;HPM_P1;HPM_P2
2021/04/26 04:12:39;;;;;;;1.60;1.60;;;1.60;99.90;;;;;;4992876;28;20234;-76
2021/04/26 04:15:08;;;;;;;1.20;1.20;;;1.60;99.90;;;;;;4993557;28;20212;-76
2021/04/26 04:17:35;;;;;;;1.23;1.23;;;1.70;99.90;;;;;;4996024;28;20228;-74
2021/04/26 04:20:05;;;;;;;1.40;1.40;;;1.70;99.90;;;;;;5009726;28;20436;-77
2021/04/26 04:22:33;;;;;;;1.40;1.40;;;;;;;;;;5009597;28;20228;-77
2021/04/26 04:25:00;;;;;;;1.50;1.50;;;1.80;99.90;;;;;;5023284;23;20714;-76
2021/04/26 04:27:27;;;;;;;1.50;1.50;;;1.80;99.90;;;;;;5001444;28;20204;-76
2021/04/26 04:29:55;;;;;;;1.30;1.30;;;1.80;99.90;;;;;;5011165;28;20195;-77
2021/04/26 04:32:22;;;;;;;1.50;1.50;;;1.90;99.90;;;;;;5012086;28;20207;-77
2021/04/26 04:34:49;;;;;;;1.27;1.27;;;2.00;99.90;;;;;;5004139;28;20659;-76
2021/04/26 04:37:15;;;;;;;1.50;1.50;;;2.00;99.90;;;;;;4992118;28;20227;-77
2021/04/26 04:39:42;;;;;;;1.20;1.20;;;2.10;99.90;;;;;;4992564;28;20208;-77
2021/04/26 04:42:10;;;;;;;1.30;1.30;;;2.10;99.90;;;;;;4992335;28;20254;-77
2021/04/26 04:44:36;;;;;;;1.30;1.30;;;2.00;99.90;;;;;;4992376;28;20626;-76
2021/04/26 04:47:04;;;;;;;1.37;1.37;;;2.00;99.90;;;;;;4992422;28;20199;-77
2021/04/26 04:49:32;;;;;;;1.30;1.30;;;2.10;99.90;;;;;;4992769;28;20214;-77
2021/04/26 04:51:59;;;;;;;1.27;1.27;;;2.10;99.90;;;;;;4992118;28;20208;-76
2021/04/26 04:54:26;;;;;;;1.20;1.20;;;2.10;99.90;;;;;;4992471;28;20278;-76
2021/04/26 04:56:53;;;;;;;1.30;1.30;;;2.10;99.90;;;;;;4992403;28;20228;-76
2021/04/26 04:59:21;;;;;;;1.50;1.50;;;2.20;99.90;;;;;;4992456;28;20207;-76
2021/04/26 05:01:48;;;;;;;1.53;1.53;;;2.20;99.90;;;;;;4992095;28;20258;-76
2021/04/26 05:04:16;;;;;;;1.20;1.20;;;2.10;99.90;;;;;;4991775;28;20232;-77
2021/04/26 05:06:43;;;;;;;1.30;1.30;;;2.40;99.90;;;;;;4990380;28;20207;-77
2021/04/26 05:09:10;;;;;;;1.20;1.20;;;2.40;99.90;;;;;;4978142;28;20192;-77
2021/04/26 05:11:37;;;;;;;1.43;1.43;;;2.60;99.90;;;;;;4993207;28;20239;-77
2021/04/26 05:14:04;;;;;;;1.27;1.27;;;2.90;99.90;;;;;;4995244;28;20200;-76
2021/04/26 05:16:32;;;;;;;1.40;1.40;;;2.70;99.90;;;;;;4996824;28;20204;-76
2021/04/26 05:19:00;;;;;;;1.30;1.30;;;2.70;99.90;;;;;;5002543;28;20208;-77
2021/04/26 05:21:28;;;;;;;1.30;1.30;;;2.80;99.90;;;;;;4997492;28;20255;-78
2021/04/26 05:23:56;;;;;;;1.20;1.20;;;3.00;99.90;;;;;;4997125;28;20208;-78
2021/04/26 05:26:26;;;;;;;1.20;1.20;;;3.00;99.90;;;;;;5009652;28;20200;-78
2021/04/26 05:28:53;;;;;;;1.30;1.30;;;3.10;99.90;;;;;;5005944;28;20715;-78
2021/04/26 05:31:21;;;;;;;1.20;1.20;;;3.20;99.90;;;;;;4998594;28;20212;-79
2021/04/26 05:33:48;;;;;;;1.20;1.20;;;3.40;99.90;;;;;;4995373;28;20698;-77
2021/04/26 05:36:16;;;;;;;1.40;1.40;;;3.70;99.90;;;;;;4995304;28;20228;-76
2021/04/26 05:38:48;;;;;;;1.43;1.43;;;3.90;99.90;;;;;;4995533;28;20207;-76
2021/04/26 05:41:15;;;;;;;1.43;1.43;;;4.00;99.90;;;;;;4995716;28;20212;-76
2021/04/26 05:43:42;;;;;;;1.20;1.20;;;4.20;99.90;;;;;;4995288;28;20815;-76
2021/04/26 05:46:09;;;;;;;1.43;1.43;;;4.30;99.90;;;;;;4995169;28;20647;-76
2021/04/26 05:48:36;;;;;;;1.43;1.43;;;4.30;99.90;;;;;;4995484;28;20295;-76
2021/04/26 05:51:03;;;;;;;1.13;1.13;;;4.50;99.90;;;;;;4995209;28;20669;-76
2021/04/26 05:53:30;;;;;;;1.13;1.13;;;4.70;99.90;;;;;;4995457;28;20234;-77
2021/04/26 05:56:03;;;;;;;1.33;1.33;;;4.80;99.90;;;;;;4994999;28;20220;-77
2021/04/26 05:58:30;;;;;;;1.20;1.20;;;4.90;99.90;;;;;;4994574;28;20282;-77
2021/04/26 06:00:57;;;;;;;1.20;1.20;;;4.90;99.90;;;;;;4994003;28;20302;-78
2021/04/26 06:03:24;;;;;;;1.17;1.17;;;5.00;99.90;;;;;;4992923;28;20277;-78
2021/04/26 06:05:50;;;;;;;1.17;1.17;;;4.90;99.90;;;;;;4992463;28;20290;-77
2021/04/26 06:08:17;;;;;;;1.33;1.33;;;5.00;99.90;;;;;;4992680;28;20231;-78
2021/04/26 06:10:44;;;;;;;1.20;1.20;;;5.00;99.90;;;;;;4993055;28;20212;-76
2021/04/26 06:13:12;;;;;;;1.00;1.00;;;5.10;99.90;;;;;;4992528;28;20208;-76
2021/04/26 06:15:39;;;;;;;1.10;1.10;;;5.20;99.90;;;;;;4992855;28;20232;-77
2021/04/26 06:18:11;;;;;;;1.27;1.27;;;5.20;99.90;;;;;;4995478;28;20224;-76
2021/04/26 06:20:39;;;;;;;1.30;1.30;;;5.20;99.90;;;;;;4995703;28;20203;-74
2021/04/26 06:23:06;;;;;;;1.10;1.10;;;5.30;99.90;;;;;;4994746;28;20711;-76
2021/04/26 06:25:35;;;;;;;1.23;1.23;;;5.30;99.90;;;;;;4994577;28;20587;-76
2021/04/26 06:28:03;;;;;;;1.10;1.10;;;5.40;99.90;;;;;;4994770;28;20206;-76
2021/04/26 06:30:31;;;;;;;1.30;1.30;;;5.50;99.90;;;;;;4994936;28;20212;-75
2021/04/26 06:32:58;;;;;;;1.17;1.17;;;5.50;99.90;;;;;;4994794;28;20203;-76
2021/04/26 06:35:25;;;;;;;1.07;1.07;;;5.60;99.90;;;;;;4994360;28;20228;-76
2021/04/26 06:37:53;;;;;;;1.10;1.10;;;5.70;99.90;;;;;;4994840;28;20259;-76
2021/04/26 06:40:19;;;;;;;1.23;1.23;;;5.50;99.90;;;;;;4994662;28;20208;-76
2021/04/26 06:42:47;;;;;;;1.20;1.20;;;5.00;99.90;;;;;;4994878;28;20204;-76
2021/04/26 06:45:20;;;;;;;1.23;1.23;;;5.40;99.90;;;;;;4994374;28;20224;-77
2021/04/26 06:47:48;;;;;;;1.20;1.20;;;5.60;99.90;;;;;;4994546;28;20626;-75
2021/04/26 06:50:16;;;;;;;1.10;1.10;;;5.70;99.90;;;;;;4994012;28;20730;-76
2021/04/26 06:52:42;;;;;;;1.40;1.40;;;5.50;99.90;;;;;;4993551;28;20204;-75
2021/04/26 06:55:10;;;;;;;1.07;1.07;;;5.70;99.90;;;;;;4993919;28;20685;-76
2021/04/26 06:57:37;;;;;;;1.10;1.10;;;6.00;99.90;;;;;;4994135;28;20228;-76
2021/04/26 07:00:05;;;;;;;1.23;1.23;;;6.10;99.90;;;;;;4994247;28;20203;-76
2021/04/26 07:02:32;;;;;;;1.03;1.03;;;6.30;99.90;;;;;;4993853;28;20204;-76
2021/04/26 07:05:00;;;;;;;1.00;1.00;;;6.40;99.90;;;;;;4993632;28;20259;-77
2021/04/26 07:07:27;;;;;;;1.07;1.07;;;6.40;99.90;;;;;;4993945;28;20702;-77
2021/04/26 07:09:54;;;;;;;1.10;1.10;;;6.60;99.90;;;;;;4994185;28;20208;-77
2021/04/26 07:12:21;;;;;;;0.93;0.93;;;6.60;99.80;;;;;;4993990;28;20267;-78
2021/04/26 07:14:48;;;;;;;1.10;1.10;;;6.80;99.90;;;;;;4996744;28;20223;-79
2021/04/26 07:17:19;;;;;;;0.90;0.90;;;6.80;99.80;;;;;;4994797;28;20223;-78
2021/04/26 07:19:46;;;;;;;1.10;1.10;;;6.80;99.30;;;;;;4996834;28;20215;-79
2021/04/26 07:22:14;;;;;;;1.00;1.00;;;6.90;99.70;;;;;;4997950;28;20211;-77
2021/04/26 07:24:41;;;;;;;0.93;0.93;;;6.90;99.30;;;;;;4993585;28;20255;-77
2021/04/26 07:27:08;;;;;;;1.10;1.10;;;6.80;99.30;;;;;;4993779;28;20196;-77
2021/04/26 07:29:35;;;;;;;1.00;1.00;;;7.00;99.90;;;;;;4993547;28;20208;-77
2021/04/26 07:32:02;;;;;;;1.07;1.07;;;7.10;99.90;;;;;;4993572;28;20278;-77
2021/04/26 07:34:29;;;;;;;1.00;1.00;;;7.30;99.10;;;;;;4993062;28;20595;-77
2021/04/26 07:36:59;;;;;;;0.90;0.90;;;7.20;98.10;;;;;;4993669;28;20203;-77
2021/04/26 07:39:28;;;;;;;1.00;1.00;;;7.40;99.90;;;;;;4998542;28;20287;-77
2021/04/26 07:41:55;;;;;;;1.00;1.00;;;7.50;97.20;;;;;;4993931;28;20207;-78
2021/04/26 07:44:22;;;;;;;0.97;0.97;;;7.50;97.00;;;;;;4994866;28;20228;-77
2021/04/26 07:46:49;;;;;;;0.90;0.90;;;7.50;96.00;;;;;;4994468;28;20208;-77
2021/04/26 07:49:16;;;;;;;1.10;1.10;;;7.40;96.30;;;;;;4995347;28;20208;-78
2021/04/26 07:51:43;;;;;;;1.10;1.10;;;7.50;96.50;;;;;;4995710;28;20215;-77
2021/04/26 07:54:10;;;;;;;0.90;0.90;;;7.70;99.90;;;;;;4995681;28;20203;-77
2021/04/26 07:56:38;;;;;;;1.10;1.10;;;7.90;94.40;;;;;;4995513;28;20204;-77
2021/04/26 07:59:05;;;;;;;0.90;0.90;;;8.00;88.80;;;;;;4995160;28;20224;-77
2021/04/26 08:01:32;;;;;;;0.90;0.90;;;8.00;85.50;;;;;;4995648;28;20212;-77
2021/04/26 08:03:59;;;;;;;0.90;0.90;;;8.10;95.50;;;;;;4994655;28;20212;-77
2021/04/26 08:06:25;;;;;;;0.90;0.90;;;8.10;82.70;;;;;;4995337;28;20215;-78
2021/04/26 08:08:52;;;;;;;0.90;0.90;;;7.80;79.10;;;;;;4995447;28;20200;-77
2021/04/26 08:11:20;;;;;;;0.80;0.80;;;7.70;79.40;;;;;;4993355;28;20279;-77
2021/04/26 08:13:47;;;;;;;1.03;1.03;;;8.00;83.00;;;;;;4993344;28;20207;-76
2021/04/26 08:16:16;;;;;;;0.90;0.90;;;8.10;84.50;;;;;;4993197;28;20274;-78
2021/04/26 08:18:42;;;;;;;0.93;0.93;;;8.10;78.30;;;;;;4992919;28;20220;-77
2021/04/26 08:21:09;;;;;;;1.20;1.20;;;8.10;77.80;;;;;;4993565;28;20262;-77
2021/04/26 08:23:38;;;;;;;0.80;0.80;;;8.20;77.20;;;;;;4993051;28;20588;-77
2021/04/26 08:26:06;;;;;;;0.90;0.90;;;8.20;77.90;;;;;;4993405;28;20236;-77
2021/04/26 08:28:33;;;;;;;0.80;0.80;;;8.30;77.80;;;;;;4994006;28;20200;-77
2021/04/26 08:31:01;;;;;;;1.00;1.00;;;8.30;74.20;;;;;;4995834;28;20220;-77
2021/04/26 08:33:28;;;;;;;1.10;1.10;;;8.10;69.80;;;;;;4994871;28;20542;-77
2021/04/26 08:35:55;;;;;;;0.90;0.90;;;8.10;72.90;;;;;;4992777;28;20231;-77
2021/04/26 08:38:22;;;;;;;0.90;0.90;;;8.30;74.80;;;;;;4993586;28;20220;-77
2021/04/26 08:40:49;;;;;;;0.90;0.90;;;8.50;69.60;;;;;;5003946;28;20235;-78
2021/04/26 08:43:17;;;;;;;0.73;0.73;;;8.50;66.40;;;;;;5013254;28;20203;-77
2021/04/26 08:45:44;;;;;;;0.80;0.80;;;8.70;64.50;;;;;;5011604;28;20216;-77
2021/04/26 08:48:12;;;;;;;0.80;0.80;;;8.70;62.80;;;;;;5017076;28;20192;-77
2021/04/26 08:50:39;;;;;;;0.80;0.80;;;8.70;60.20;;;;;;5020469;28;20256;-78
2021/04/26 08:53:07;;;;;;;0.90;0.90;;;8.50;62.70;;;;;;5020265;28;20207;-77
2021/04/26 08:55:34;;;;;;;0.90;0.90;;;8.60;64.80;;;;;;5015808;28;20226;-78
2021/04/26 08:58:01;;;;;;;0.90;0.90;;;8.70;65.40;;;;;;5002883;28;20247;-78
2021/04/26 09:00:28;;;;;;;0.93;0.93;;;8.40;67.00;;;;;;4998238;28;20739;-77
2021/04/26 09:02:57;;;;;;;1.00;1.00;;;8.40;67.30;;;;;;5002864;28;20652;-77
2021/04/26 09:05:27;;;;;;;0.80;0.80;;;8.20;68.10;;;;;;5001149;28;20224;-76
2021/04/26 09:07:57;;;;;;;0.90;0.90;;;8.40;69.70;;;;;;5000812;28;20231;-76
2021/04/26 09:10:41;;;;;;;1.00;1.00;;;8.70;69.20;;;;;;5010395;28;20200;-78
2021/04/26 09:13:34;;;;;;;1.10;1.10;;;8.50;67.50;;;;;;5013563;28;20191;-78
2021/04/26 09:16:04;;;;;;;1.00;1.00;;;8.70;67.80;;;;;;5019917;28;20216;-77
2021/04/26 09:18:45;;;;;;;1.00;1.00;;;8.80;66.50;;;;;;5019630;28;20219;-77
2021/04/26 09:21:15;;;;;;;0.90;0.90;;;8.90;67.50;;;;;;5015341;28;20184;-78
2021/04/26 09:23:43;;;;;;;1.00;1.00;;;8.80;65.90;;;;;;4992245;28;20612;-78
2021/04/26 09:26:27;;;;;;;0.90;0.90;;;8.90;67.20;;;;;;4981322;28;20244;-78
2021/04/26 09:29:15;;;;;;;0.90;0.90;;;8.90;65.40;;;;;;4985348;28;20231;-79
2021/04/26 09:31:57;;;;;;;0.80;0.80;;;9.20;64.80;;;;;;4998707;28;20220;-78
2021/04/26 09:34:32;;;;;;;0.88;0.88;;;9.40;64.80;;;;;;4997596;28;20236;-79
2021/04/26 09:37:12;;;;;;;0.70;0.70;;;9.40;64.40;;;;;;4997160;28;20210;-78
2021/04/26 09:39:58;;;;;;;0.82;0.82;;;9.40;64.90;;;;;;4992423;28;20208;-79
2021/04/26 09:42:41;;;;;;;1.00;1.00;;;9.30;63.90;;;;;;5003435;28;20204;-78
2021/04/26 09:45:20;;;;;;;0.90;0.90;;;9.00;63.30;;;;;;4992528;28;20220;-79
2021/04/26 09:47:49;;;;;;;1.00;1.00;;;9.00;63.50;;;;;;4987979;28;20196;-78
2021/04/26 09:50:16;;;;;;;0.80;0.80;;;9.00;60.30;;;;;;4993217;28;20197;-79
2021/04/26 09:52:44;;;;;;;0.80;0.80;;;9.00;61.80;;;;;;4991741;28;20228;-80
2021/04/26 09:55:30;;;;;;;0.93;0.93;;;9.20;61.60;;;;;;4996417;28;20648;-80
2021/04/26 10:01:44;;;;;;;0.83;0.83;;;9.10;61.70;;;;;;4993015;28;20212;-78
2021/04/26 10:04:12;;;;;;;0.93;0.93;;;9.40;81.10;;;;;;4993258;28;20240;-80
2021/04/26 10:06:40;;;;;;;0.80;0.80;;;9.20;61.10;;;;;;4993008;28;20311;-80
2021/04/26 10:09:09;;;;;;;0.90;0.90;;;9.20;59.90;;;;;;4992912;28;20201;-80
2021/04/26 10:11:37;;;;;;;0.80;0.80;;;9.30;63.30;;;;;;4990779;28;20266;-79
2021/04/26 10:14:07;;;;;;;1.05;1.05;;;9.70;88.70;;;;;;4989445;28;20228;-81
2021/04/26 10:16:44;;;;;;;0.70;0.70;;;10.00;60.60;;;;;;4991720;28;20192;-81
2021/04/26 10:19:16;;;;;;;0.82;0.82;;;10.20;60.10;;;;;;4993111;28;20220;-82
2021/04/26 10:21:54;;;;;;;0.80;0.80;;;10.10;59.20;;;;;;4993739;28;20196;-81
2021/04/26 10:24:24;;;;;;;0.80;0.80;;;10.00;58.80;;;;;;4990695;28;20259;-78
2021/04/26 10:26:54;;;;;;;0.60;0.60;;;10.10;61.60;;;;;;5005384;28;20201;-78
2021/04/26 10:29:26;;;;;;;0.80;0.80;;;10.00;61.10;;;;;;5013765;28;20252;-79
2021/04/26 10:32:08;;;;;;;0.90;0.90;;;9.70;60.00;;;;;;5018759;28;20195;-80
2021/04/26 10:34:37;;;;;;;0.82;0.82;;;9.70;60.90;;;;;;5018606;28;20242;-79
2021/04/26 10:37:18;;;;;;;0.75;0.75;;;9.90;60.70;;;;;;5018143;28;20211;-80
2021/04/26 10:40:05;;;;;;;0.90;0.90;;;10.20;60.10;;;;;;5011965;28;20181;-81
2021/04/26 10:42:33;;;;;;;0.80;0.80;;;10.30;60.20;;;;;;4997434;28;20268;-80
2021/04/26 10:45:01;;;;;;;0.80;0.80;;;10.30;59.50;;;;;;4997501;28;20219;-78
2021/04/26 10:47:32;;;;;;;0.70;0.70;;;10.50;59.40;;;;;;4983471;28;20215;-79
2021/04/26 10:50:36;;;;;;;0.77;0.77;;;10.30;59.70;;;;;;4985598;28;20205;-79
2021/04/26 10:53:05;;;;;;;0.80;0.80;;;10.60;59.60;;;;;;4984241;28;20205;-78
2021/04/26 10:55:54;;;;;;;0.60;0.60;;;10.70;61.20;;;;;;4989170;28;20232;-78
2021/04/26 10:58:25;;;;;;;0.77;0.77;;;10.60;59.50;;;;;;4984037;28;20307;-79
2021/04/26 11:00:52;;;;;;;0.80;0.80;;;10.70;59.80;;;;;;4979330;28;20307;-81
2021/04/26 11:03:41;;;;;;;0.80;0.80;;;10.40;59.60;;;;;;4978993;28;20204;-80
2021/04/26 11:06:17;;;;;;;0.88;0.88;;;10.50;59.70;;;;;;4978335;28;20220;-80
2021/04/26 11:08:48;;;;;;;0.70;0.70;;;10.50;59.50;;;;;;4979140;28;20184;-78
2021/04/26 11:11:18;;;;;;;0.70;0.70;;;10.90;58.90;;;;;;4977760;28;20208;-78
2021/04/26 11:13:53;;;;;;;0.80;0.80;;;11.00;59.30;;;;;;4979422;28;20232;-80
2021/04/26 11:16:53;;;;;;;0.80;0.80;;;11.10;63.10;;;;;;4978527;28;20582;-78
2021/04/26 11:19:20;;;;;;;0.60;0.60;;;11.10;58.70;;;;;;4979727;28;20224;-79
2021/04/26 11:21:55;;;;;;;0.70;0.70;;;11.10;57.70;;;;;;4980070;28;20240;-79
2021/04/26 11:24:47;;;;;;;0.60;0.60;;;11.30;58.30;;;;;;4979041;28;20270;-79
2021/04/26 11:27:18;;;;;;;0.60;0.60;;;;;;;;;;4964385;28;20732;-80
2021/04/26 11:30:16;;;;;;;0.73;0.73;;;11.80;56.70;;;;;;4979212;28;20204;-80
2021/04/26 11:33:00;;;;;;;0.70;0.70;;;11.10;76.80;;;;;;4980915;28;20209;-81
2021/04/26 11:35:27;;;;;;;0.70;0.70;;;11.20;58.20;;;;;;4978126;28;20287;-79
2021/04/26 11:37:55;;;;;;;0.63;0.63;;;11.10;57.70;;;;;;4977966;28;20252;-80
2021/04/26 11:40:24;;;;;;;0.73;0.73;;;11.10;59.00;;;;;;4978089;28;20212;-81
2021/04/26 11:43:00;;;;;;;0.77;0.77;;;11.20;58.00;;;;;;4979063;28;20205;-79
2021/04/26 11:45:27;;;;;;;0.70;0.70;;;11.30;57.60;;;;;;4982384;28;20232;-79
2021/04/26 11:47:54;;;;;;;0.60;0.60;;;11.40;76.30;;;;;;4977239;28;20204;-79
2021/04/26 11:50:21;;;;;;;0.70;0.70;;;11.20;57.20;;;;;;4975647;28;20236;-79
2021/04/26 11:52:48;;;;;;;0.60;0.60;;;10.90;58.00;;;;;;4975433;28;20208;-79
2021/04/26 11:55:17;;;;;;;0.60;0.60;;;10.80;58.60;;;;;;4978360;28;20708;-80
2021/04/26 11:57:47;;;;;;;0.70;0.70;;;10.70;58.30;;;;;;4976191;28;20255;-81
2021/04/26 12:00:17;;;;;;;0.80;0.80;;;10.70;58.40;;;;;;4979554;28;20227;-80
2021/04/26 12:02:46;;;;;;;0.70;0.70;;;10.90;58.20;;;;;;4987588;28;20192;-79
2021/04/26 12:05:16;;;;;;;0.80;0.80;;;10.90;57.60;;;;;;4977674;28;20311;-80
2021/04/26 12:07:44;;;;;;;0.70;0.70;;;11.40;57.40;;;;;;4978118;28;20208;-80
2021/04/26 12:10:13;;;;;;;0.70;0.70;;;11.60;56.40;;;;;;4978723;28;20609;-80
2021/04/26 12:12:40;;;;;;;0.60;0.60;;;11.80;56.60;;;;;;4978705;28;20209;-80
2021/04/26 12:15:10;;;;;;;0.68;0.68;;;11.80;56.60;;;;;;4978515;28;20287;-79
2021/04/26 12:17:39;;;;;;;0.60;0.60;;;12.00;56.30;;;;;;4978634;28;20236;-79
2021/04/26 12:20:16;;;;;;;0.60;0.60;;;12.00;56.10;;;;;;4977798;28;20619;-80
2021/04/26 12:22:45;;;;;;;0.80;0.80;;;12.20;55.10;;;;;;4988099;28;20271;-79
2021/04/26 12:25:13;;;;;;;0.73;0.73;;;11.90;55.20;;;;;;4993005;28;20235;-79
2021/04/26 12:27:41;;;;;;;1.00;1.00;;;11.50;56.20;;;;;;4993799;28;20317;-79
2021/04/26 12:30:14;;;;;;;0.70;0.70;;;11.20;57.40;;;;;;4994082;28;20200;-79
2021/04/26 12:32:50;;;;;;;0.80;0.80;;;11.00;57.40;;;;;;4994245;28;20225;-79
2021/04/26 12:35:18;;;;;;;0.80;0.80;;;11.00;57.80;;;;;;4984852;28;20787;-79
2021/04/26 12:37:47;;;;;;;0.70;0.70;;;11.20;57.30;;;;;;4978261;28;20204;-79
2021/04/26 12:40:22;;;;;;;0.70;0.70;;;11.60;57.20;;;;;;4978324;28;20205;-79
2021/04/26 12:42:50;;;;;;;0.70;0.70;;;11.90;56.50;;;;;;4978360;28;20189;-79
2021/04/26 12:45:22;;;;;;;0.60;0.60;;;12.20;55.20;;;;;;4977149;28;20279;-79
2021/04/26 12:48:00;;;;;;;0.60;0.60;;;11.80;56.10;;;;;;4977423;28;20235;-79
2021/04/26 12:50:32;;;;;;;0.68;0.68;;;12.10;56.80;;;;;;4978598;28;20185;-78
2021/04/26 12:53:04;;;;;;;0.73;0.73;;;11.80;56.40;;;;;;4977664;28;20200;-79
2021/04/26 12:55:31;;;;;;;0.77;0.77;;;11.70;57.50;;;;;;4977239;28;20279;-79
2021/04/26 12:58:09;;;;;;;0.60;0.60;;;11.60;56.30;;;;;;4976324;28;20628;-79
2021/04/26 13:00:39;;;;;;;0.70;0.70;;;11.30;56.80;;;;;;4976247;28;20192;-79
2021/04/26 13:03:24;;;;;;;0.70;0.70;;;10.90;56.90;;;;;;4976862;28;20211;-78
2021/04/26 13:05:53;;;;;;;0.70;0.70;;;10.20;77.70;;;;;;4977359;28;20232;-80
2021/04/26 13:08:21;;;;;;;0.90;0.90;;;10.30;57.20;;;;;;4978476;28;20197;-79
2021/04/26 13:10:50;;;;;;;0.80;0.80;;;10.30;57.50;;;;;;4977835;28;20209;-79
2021/04/26 13:13:17;;;;;;;0.60;0.60;;;10.70;59.60;;;;;;4977367;28;20228;-79
2021/04/26 13:15:44;;;;;;;0.80;0.80;;;11.30;57.20;;;;;;4976216;28;20221;-79
2021/04/26 13:18:13;;;;;;;0.70;0.70;;;11.80;56.50;;;;;;4975656;28;20220;-81
2021/04/26 13:20:42;;;;;;;0.70;0.70;;;12.00;55.10;;;;;;4977860;28;20661;-80
2021/04/26 13:23:18;;;;;;;0.70;0.70;;;12.30;53.60;;;;;;4977622;28;20201;-79
2021/04/26 13:25:46;;;;;;;0.80;0.80;;;12.20;53.90;;;;;;4977647;28;20278;-79
2021/04/26 13:28:27;;;;;;;0.70;0.70;;;;;;;;;;4977181;28;20231;-79
2021/04/26 13:30:54;;;;;;;0.80;0.80;;;13.20;52.60;;;;;;4976760;28;20212;-78
2021/04/26 13:33:22;;;;;;;0.70;0.70;;;13.00;52.30;;;;;;4977782;28;20732;-79
2021/04/26 13:35:51;;;;;;;0.80;0.80;;;12.90;51.20;;;;;;4980982;28;20678;-79
2021/04/26 13:38:18;;;;;;;0.68;0.68;;;12.70;50.30;;;;;;4980484;28;20286;-79
2021/04/26 13:40:46;;;;;;;0.70;0.70;;;12.60;51.30;;;;;;4981636;28;20208;-79
2021/04/26 13:43:14;;;;;;;0.50;0.50;;;12.50;50.90;;;;;;4978471;28;20204;-78
2021/04/26 13:45:41;;;;;;;0.70;0.70;;;12.60;50.40;;;;;;4979231;28;20663;-78
2021/04/26 13:48:08;;;;;;;0.70;0.70;;;12.70;50.10;;;;;;4981456;28;20200;-79
2021/04/26 13:50:35;;;;;;;0.70;0.70;;;12.80;50.60;;;;;;4980974;28;20279;-78
2021/04/26 13:53:04;;;;;;;0.70;0.70;;;12.80;50.30;;;;;;4980035;28;20248;-78
2021/04/26 13:55:31;;;;;;;0.60;0.60;;;12.40;50.00;;;;;;4980201;28;20221;-80
2021/04/26 13:57:58;;;;;;;0.60;0.60;;;11.90;50.20;;;;;;4976353;28;20208;-77
2021/04/26 14:00:28;;;;;;;0.65;0.65;;;12.10;52.40;;;;;;4976335;28;20208;-73
2021/04/26 14:02:55;;;;;;;0.60;0.60;;;12.20;50.90;;;;;;4976055;28;20738;-79
2021/04/26 14:05:23;;;;;;;0.60;0.60;;;12.10;51.90;;;;;;4978593;28;20220;-73
2021/04/26 14:07:50;;;;;;;0.70;0.70;;;12.30;50.30;;;;;;4975608;28;20205;-76
2021/04/26 14:10:18;;;;;;;0.80;0.80;;;12.30;49.60;;;;;;4975673;28;20209;-75
2021/04/26 14:12:45;;;;;;;0.70;0.70;;;12.30;50.50;;;;;;4975490;28;20219;-73
2021/04/26 14:15:14;;;;;;;0.80;0.80;;;12.30;50.30;;;;;;4975549;28;20229;-71
2021/04/26 14:17:41;;;;;;;0.70;0.70;;;12.30;50.70;;;;;;4975440;28;20283;-74
2021/04/26 14:20:09;;;;;;;0.55;0.55;;;12.50;51.60;;;;;;4976708;28;20632;-79
2021/04/26 14:22:36;;;;;;;0.57;0.57;;;13.00;48.50;;;;;;4977370;28;20215;-77
2021/04/26 14:25:05;;;;;;;0.40;0.40;;;14.00;47.10;;;;;;4980455;28;20232;-79
2021/04/26 14:27:33;;;;;;;0.57;0.57;;;14.00;47.10;;;;;;4976023;28;20204;-77
2021/04/26 14:30:00;;;;;;;0.40;0.40;;;14.30;47.90;;;;;;4982167;28;20192;-81
2021/04/26 14:32:27;;;;;;;0.40;0.40;;;14.30;69.20;;;;;;4997182;28;20203;-83
2021/04/26 14:34:54;;;;;;;0.50;0.50;;;14.30;46.80;;;;;;4998075;28;20220;-79
2021/04/26 14:37:32;;;;;;;0.40;0.40;;;14.60;46.70;;;;;;4998380;28;20676;-81
2021/04/26 14:39:59;;;;;;;0.50;0.50;;;14.70;46.20;;;;;;4997832;28;20226;-82
2021/04/26 14:42:26;;;;;;;0.50;0.50;;;14.90;45.80;;;;;;4997107;28;20752;-80
2021/04/26 14:44:55;;;;;;;0.50;0.50;;;14.90;46.40;;;;;;4974695;28;20228;-74
2021/04/26 14:47:22;;;;;;;0.60;0.60;;;14.50;47.40;;;;;;4975009;28;20236;-77
2021/04/26 14:49:48;;;;;;;0.60;0.60;;;14.20;48.00;;;;;;4975486;28;20205;-76
2021/04/26 14:52:15;;;;;;;0.52;0.52;;;14.30;47.30;;;;;;4975280;28;20201;-76
2021/04/26 14:54:42;;;;;;;0.50;0.50;;;14.10;46.80;;;;;;4974808;28;20236;-77
2021/04/26 14:57:09;;;;;;;0.50;0.50;;;14.70;47.70;;;;;;4974992;28;20287;-75
2021/04/26 14:59:36;;;;;;;0.50;0.50;;;15.40;46.40;;;;;;4986948;28;20266;-77
2021/04/26 15:02:04;;;;;;;0.40;0.40;;;15.60;45.40;;;;;;4997621;28;20231;-77
2021/04/26 15:04:31;;;;;;;0.60;0.60;;;14.80;46.30;;;;;;4993888;28;20725;-77
2021/04/26 15:06:58;;;;;;;0.60;0.60;;;14.30;47.10;;;;;;4994989;28;20204;-77
2021/04/26 15:09:26;;;;;;;0.60;0.60;;;14.20;46.60;;;;;;4996108;28;20611;-77
2021/04/26 15:11:53;;;;;;;0.50;0.50;;;14.30;46.70;;;;;;4996178;28;20208;-77
2021/04/26 15:14:20;;;;;;;0.50;0.50;;;14.50;46.10;;;;;;4994155;28;20274;-78
2021/04/26 15:16:46;;;;;;;0.50;0.50;;;15.50;44.60;;;;;;4993801;28;20199;-75
2021/04/26 15:19:14;;;;;;;0.50;0.50;;;15.70;45.60;;;;;;4993554;28;20607;-76
2021/04/26 15:21:42;;;;;;;0.50;0.50;;;16.50;44.20;;;;;;4993925;28;20204;-74
2021/04/26 15:24:12;;;;;;;0.50;0.50;;;16.60;58.00;;;;;;4993525;28;20212;-70
2021/04/26 15:26:40;;;;;;;0.40;0.40;;;16.70;43.90;;;;;;4994436;28;20192;-77
2021/04/26 15:29:07;;;;;;;0.50;0.50;;;16.60;43.70;;;;;;4994262;28;20200;-78
2021/04/26 15:31:35;;;;;;;0.30;0.30;;;17.20;42.20;;;;;;4984315;28;20204;-78
2021/04/26 15:34:03;;;;;;;0.30;0.30;;;17.40;42.80;;;;;;4975896;28;20291;-78
2021/04/26 15:36:31;;;;;;;0.50;0.50;;;17.40;41.80;;;;;;4976636;28;20208;-79
2021/04/26 15:38:58;;;;;;;0.40;0.40;;;17.00;42.10;;;;;;4976337;28;20291;-78
2021/04/26 15:41:26;;;;;;;0.50;0.50;;;16.50;43.40;;;;;;4976688;28;20205;-80
2021/04/26 15:43:53;;;;;;;0.50;0.50;;;15.90;43.70;;;;;;4973739;28;20213;-79
2021/04/26 15:46:21;;;;;;;0.60;0.60;;;15.30;44.50;;;;;;4974185;28;20279;-78
2021/04/26 15:48:48;;;;;;;0.50;0.50;;;14.90;44.70;;;;;;4974424;28;20201;-78
2021/04/26 15:51:17;;;;;;;0.50;0.50;;;15.00;44.60;;;;;;4974940;28;20255;-78
2021/04/26 15:53:45;;;;;;;0.30;0.30;;;15.60;44.20;;;;;;4975036;28;20209;-80
2021/04/26 15:56:12;;;;;;;0.40;0.40;;;16.10;43.80;;;;;;4973571;28;20282;-78
2021/04/26 15:58:39;;;;;;;0.30;0.30;;;16.40;42.10;;;;;;4973613;28;20624;-78
2021/04/26 16:01:06;;;;;;;0.38;0.38;;;17.20;42.60;;;;;;4976777;28;20274;-79
2021/04/26 16:03:32;;;;;;;0.40;0.40;;;17.00;41.20;;;;;;4978714;28;20208;-79
2021/04/26 16:05:59;;;;;;;0.50;0.50;;;16.60;41.10;;;;;;4974848;28;20311;-79
2021/04/26 16:08:26;;;;;;;0.30;0.30;;;16.70;42.30;;;;;;4974485;28;20200;-78
2021/04/26 16:10:54;;;;;;;0.50;0.50;;;16.70;41.60;;;;;;4976197;28;20244;-78
2021/04/26 16:13:21;;;;;;;0.40;0.40;;;17.10;40.50;;;;;;4975382;28;20208;-77
2021/04/26 16:15:48;;;;;;;0.32;0.32;;;16.70;41.10;;;;;;4974824;28;20220;-79
2021/04/26 16:18:15;;;;;;;0.40;0.40;;;16.90;40.70;;;;;;4975416;28;20204;-79
2021/04/26 16:20:44;;;;;;;0.30;0.30;;;17.20;40.00;;;;;;4974317;28;20570;-79
2021/04/26 16:23:11;;;;;;;0.50;0.50;;;16.80;40.90;;;;;;4974164;28;20205;-78
2021/04/26 16:25:38;;;;;;;0.30;0.30;;;16.50;40.40;;;;;;4978776;28;20233;-79
2021/04/26 16:28:05;;;;;;;0.30;0.30;;;16.80;40.30;;;;;;4984302;28;20204;-79
2021/04/26 16:30:32;;;;;;;0.40;0.40;;;16.00;41.10;;;;;;4979727;28;20205;-80
2021/04/26 16:32:59;;;;;;;0.40;0.40;;;16.40;41.00;;;;;;4978404;28;20208;-79
2021/04/26 16:35:26;;;;;;;0.30;0.30;;;17.50;40.10;;;;;;4977684;28;20557;-81
2021/04/26 16:37:53;;;;;;;0.30;0.30;;;18.10;38.90;;;;;;4977686;28;20204;-78
2021/04/26 16:40:21;;;;;;;0.30;0.30;;;18.00;39.80;;;;;;4977459;28;20717;-80
2021/04/26 16:42:48;;;;;;;0.40;0.40;;;17.90;39.20;;;;;;4977437;28;20267;-78
2021/04/26 16:45:17;;;;;;;0.43;0.43;;;17.90;38.90;;;;;;4977434;28;20225;-80
2021/04/26 16:47:44;;;;;;;0.40;0.40;;;18.10;39.40;;;;;;4978269;28;20615;-80
2021/04/26 16:50:12;;;;;;;0.50;0.50;;;18.00;38.90;;;;;;4978064;28;20870;-80
2021/04/26 16:52:39;;;;;;;0.40;0.40;;;17.90;39.30;;;;;;4978163;28;20204;-79
2021/04/26 16:55:07;;;;;;;0.50;0.50;;;17.50;40.10;;;;;;4979252;28;20702;-78
2021/04/26 16:57:37;;;;;;;0.50;0.50;;;17.70;39.10;;;;;;4978643;28;20209;-79
2021/04/26 17:00:08;;;;;;;0.50;0.50;;;17.80;38.80;;;;;;4979254;28;20224;-78
2021/04/26 17:02:35;;;;;;;0.50;0.50;;;18.00;38.50;;;;;;4980753;28;20212;-79
2021/04/26 17:05:07;;;;;;;0.40;0.40;;;17.60;38.70;;;;;;4979548;28;20228;-78
2021/04/26 17:07:33;;;;;;;0.40;0.40;;;17.00;39.40;;;;;;4981446;28;20212;-79
2021/04/26 17:10:00;;;;;;;0.30;0.30;;;17.10;39.80;;;;;;4980301;28;20205;-77
2021/04/26 17:12:27;;;;;;;0.30;0.30;;;17.20;39.20;;;;;;4980350;28;20215;-79
2021/04/26 17:14:54;;;;;;;0.40;0.40;;;17.10;40.60;;;;;;4979950;28;20224;-80
2021/04/26 17:17:21;;;;;;;0.30;0.30;;;17.40;39.60;;;;;;4980456;28;20200;-80
2021/04/26 17:19:51;;;;;;;0.45;0.45;;;17.60;39.80;;;;;;4981442;28;20228;-78